Atlantica — V7NB5 — position and weather

sailwx.info

Track history (hours):
 
Tides and Currents Weather Stations Pressure Air Temp Water Temp Dewpoint Dewpoint Depression Visibility Wind Speed Wind Dir Waves Ship Positions

Atlantica

Last reported at 2017-Apr-27 14:01 UTC. Time now 2017-Apr-27 14:41 UTC.
Position N 26°06' W 080°07'.

Length 45 m; draft 2.9 m.

Type: Pleasure craft. MMSI: 538070397.

Date/timePositionNaut miles runAvg speedWind from/ knotsBaromVisibWave heightAir tempDewpointWater temp
2017-Apr-27 14:01N 26°06' W 080°07'0 0.9
2017-Apr-27 13:30N 26°06' W 080°07'4 7.3
2017-Apr-27 13:00N 26°03' W 080°04'612.3
2017-Apr-27 12:29N 25°57' W 080°02'612.6
2017-Apr-27 12:01N 25°51' W 080°01'612.9
2017-Apr-27 11:30N 25°45' W 079°60'612.7
2017-Apr-27 11:00N 25°39' W 079°59'612.7
2017-Apr-27 10:30N 25°32' W 079°60'  
2017-Apr-19 00:43N 25°23' W 080°05'3 7.7
2017-Apr-19 00:23N 25°25' W 080°04'3 7.6
2017-Apr-19 00:00N 25°28' W 080°03'4 7.6
2017-Apr-18 23:30N 25°32' W 080°02'4 7.7
2017-Apr-18 23:00N 25°35' W 080°02'4 7.6
2017-Apr-18 22:30N 25°38' W 080°05'4 8.5
2017-Apr-18 22:00N 25°39' W 080°10'4 9.1
2017-Apr-18 21:30N 25°41' W 080°14'1 2.5
2017-Apr-18 21:01N 25°41' W 080°15'0 0.0
2017-Apr-18 20:30N 25°41' W 080°15'0 0.0
2017-Apr-18 20:00N 25°41' W 080°15'0 0.0
2017-Apr-18 19:30N 25°41' W 080°15'0 0.0
2017-Apr-18 19:00N 25°41' W 080°15'0 0.0
2017-Apr-18 18:31N 25°41' W 080°15'0 0.0
2017-Apr-18 18:00N 25°41' W 080°15'0 0.0
2017-Apr-18 17:30N 25°41' W 080°15'0 0.0
2017-Apr-18 17:00N 25°41' W 080°15'0 0.0
2017-Apr-18 16:30N 25°41' W 080°15'0 0.0
2017-Apr-18 16:00N 25°41' W 080°15'0 0.0
2017-Apr-18 15:30N 25°41' W 080°15'0 0.0
2017-Apr-18 15:00N 25°41' W 080°15'0 0.0
2017-Apr-18 14:30N 25°41' W 080°15'0 0.0
2017-Apr-18 13:30N 25°41' W 080°15'0 0.0
2017-Apr-18 13:00N 25°41' W 080°15'0 0.0
2017-Apr-18 12:30N 25°41' W 080°15'0 0.0
2017-Apr-18 12:00N 25°41' W 080°15'0 0.0
2017-Apr-18 11:30N 25°41' W 080°15'0 0.0
2017-Apr-18 11:00N 25°41' W 080°15'0 0.0
2017-Apr-18 10:30N 25°41' W 080°15'0 0.0
2017-Apr-18 10:00N 25°41' W 080°15'0 0.0
2017-Apr-18 09:30N 25°41' W 080°15'0 0.0
2017-Apr-18 09:00N 25°41' W 080°15'0 0.0
2017-Apr-18 08:30N 25°41' W 080°15'0 0.0
2017-Apr-18 08:00N 25°41' W 080°15'0 0.0
2017-Apr-18 07:30N 25°41' W 080°15'0 0.0
2017-Apr-18 07:00N 25°41' W 080°15'0 0.0
2017-Apr-18 06:30N 25°41' W 080°15'0 0.0
2017-Apr-18 06:00N 25°41' W 080°15'0 0.0
2017-Apr-18 05:31N 25°41' W 080°15'0 0.0
2017-Apr-18 05:00N 25°41' W 080°15'0 0.0
2017-Apr-18 04:30N 25°41' W 080°15'0 0.0
2017-Apr-18 04:00N 25°41' W 080°15'0 0.0
2017-Apr-18 03:31N 25°41' W 080°15'0 0.0
2017-Apr-18 03:00N 25°41' W 080°15'0 0.0
2017-Apr-18 02:30N 25°41' W 080°15'0 0.0
2017-Apr-18 02:00N 25°41' W 080°15'0 0.0
2017-Apr-18 01:30N 25°41' W 080°15'0 0.0
2017-Apr-18 01:00N 25°41' W 080°15'0 0.0
2017-Apr-18 00:30N 25°41' W 080°15'0 0.0
2017-Apr-18 00:00N 25°41' W 080°15'0 0.0
2017-Apr-17 23:30N 25°41' W 080°15'0 0.0
2017-Apr-17 23:00N 25°41' W 080°15'0 0.0
2017-Apr-17 22:30N 25°41' W 080°15'0 0.0
2017-Apr-17 22:00N 25°41' W 080°15'0 0.0
2017-Apr-17 21:30N 25°41' W 080°15'0 0.0
2017-Apr-17 21:00N 25°41' W 080°15'0 0.0
2017-Apr-17 20:30N 25°41' W 080°15'0 0.0
2017-Apr-17 20:00N 25°41' W 080°15'0 0.0
2017-Apr-17 19:30N 25°41' W 080°15'0 0.0
2017-Apr-17 19:01N 25°41' W 080°15'0 0.0
2017-Apr-17 18:30N 25°41' W 080°15'0 0.0
2017-Apr-17 18:00N 25°41' W 080°15'0 0.0
2017-Apr-17 17:30N 25°41' W 080°15'0 0.0
2017-Apr-17 17:00N 25°41' W 080°15'0 0.0
2017-Apr-17 16:30N 25°41' W 080°15'0 0.0
2017-Apr-17 16:00N 25°41' W 080°15'0 0.0
2017-Apr-17 15:30N 25°41' W 080°15'0 0.0
2017-Apr-17 15:00N 25°41' W 080°15'0 0.0
2017-Apr-17 14:01N 25°41' W 080°15'  
Track history (hours):
 
Tides and Currents Weather Stations Pressure Air Temp Water Temp Dewpoint Dewpoint Depression Visibility Wind Speed Wind Dir Waves Ship Positions

Atlantica

Last reported at 2017-Apr-27 14:01 UTC. Time now 2017-Apr-27 14:41 UTC.
Position N 26°06' W 080°07'.

Length 45 m; draft 2.9 m.

Type: Pleasure craft. MMSI: 538070397.

Date/timePositionNaut miles runAvg speedWind from/ knotsBaromVisibWave heightAir tempDewpointWater temp
2017-Apr-27 14:01N 26°06' W 080°07'0 0.9
2017-Apr-27 13:30N 26°06' W 080°07'4 7.3
2017-Apr-27 13:00N 26°03' W 080°04'612.3
2017-Apr-27 12:29N 25°57' W 080°02'612.6
2017-Apr-27 12:01N 25°51' W 080°01'612.9
2017-Apr-27 11:30N 25°45' W 079°60'612.7
2017-Apr-27 11:00N 25°39' W 079°59'612.7
2017-Apr-27 10:30N 25°32' W 079°60'  
2017-Apr-19 00:43N 25°23' W 080°05'3 7.7
2017-Apr-19 00:23N 25°25' W 080°04'3 7.6
2017-Apr-19 00:00N 25°28' W 080°03'4 7.6
2017-Apr-18 23:30N 25°32' W 080°02'4 7.7
2017-Apr-18 23:00N 25°35' W 080°02'4 7.6
2017-Apr-18 22:30N 25°38' W 080°05'4 8.5
2017-Apr-18 22:00N 25°39' W 080°10'4 9.1
2017-Apr-18 21:30N 25°41' W 080°14'1 2.5
2017-Apr-18 21:01N 25°41' W 080°15'0 0.0
2017-Apr-18 20:30N 25°41' W 080°15'0 0.0
2017-Apr-18 20:00N 25°41' W 080°15'0 0.0
2017-Apr-18 19:30N 25°41' W 080°15'0 0.0
2017-Apr-18 19:00N 25°41' W 080°15'0 0.0
2017-Apr-18 18:31N 25°41' W 080°15'0 0.0
2017-Apr-18 18:00N 25°41' W 080°15'0 0.0
2017-Apr-18 17:30N 25°41' W 080°15'0 0.0
2017-Apr-18 17:00N 25°41' W 080°15'0 0.0
2017-Apr-18 16:30N 25°41' W 080°15'0 0.0
2017-Apr-18 16:00N 25°41' W 080°15'0 0.0
2017-Apr-18 15:30N 25°41' W 080°15'0 0.0
2017-Apr-18 15:00N 25°41' W 080°15'0 0.0
2017-Apr-18 14:30N 25°41' W 080°15'0 0.0
2017-Apr-18 13:30N 25°41' W 080°15'0 0.0
2017-Apr-18 13:00N 25°41' W 080°15'0 0.0
2017-Apr-18 12:30N 25°41' W 080°15'0 0.0
2017-Apr-18 12:00N 25°41' W 080°15'0 0.0
2017-Apr-18 11:30N 25°41' W 080°15'0 0.0
2017-Apr-18 11:00N 25°41' W 080°15'0 0.0
2017-Apr-18 10:30N 25°41' W 080°15'0 0.0
2017-Apr-18 10:00N 25°41' W 080°15'0 0.0
2017-Apr-18 09:30N 25°41' W 080°15'0 0.0
2017-Apr-18 09:00N 25°41' W 080°15'0 0.0
2017-Apr-18 08:30N 25°41' W 080°15'0 0.0
2017-Apr-18 08:00N 25°41' W 080°15'0 0.0
2017-Apr-18 07:30N 25°41' W 080°15'0 0.0
2017-Apr-18 07:00N 25°41' W 080°15'0 0.0
2017-Apr-18 06:30N 25°41' W 080°15'0 0.0
2017-Apr-18 06:00N 25°41' W 080°15'0 0.0
2017-Apr-18 05:31N 25°41' W 080°15'0 0.0
2017-Apr-18 05:00N 25°41' W 080°15'0 0.0
2017-Apr-18 04:30N 25°41' W 080°15'0 0.0
2017-Apr-18 04:00N 25°41' W 080°15'0 0.0
2017-Apr-18 03:31N 25°41' W 080°15'0 0.0
2017-Apr-18 03:00N 25°41' W 080°15'0 0.0
2017-Apr-18 02:30N 25°41' W 080°15'0 0.0
2017-Apr-18 02:00N 25°41' W 080°15'0 0.0
2017-Apr-18 01:30N 25°41' W 080°15'0 0.0
2017-Apr-18 01:00N 25°41' W 080°15'0 0.0
2017-Apr-18 00:30N 25°41' W 080°15'0 0.0
2017-Apr-18 00:00N 25°41' W 080°15'0 0.0
2017-Apr-17 23:30N 25°41' W 080°15'0 0.0
2017-Apr-17 23:00N 25°41' W 080°15'0 0.0
2017-Apr-17 22:30N 25°41' W 080°15'0 0.0
2017-Apr-17 22:00N 25°41' W 080°15'0 0.0
2017-Apr-17 21:30N 25°41' W 080°15'0 0.0
2017-Apr-17 21:00N 25°41' W 080°15'0 0.0
2017-Apr-17 20:30N 25°41' W 080°15'0 0.0
2017-Apr-17 20:00N 25°41' W 080°15'0 0.0
2017-Apr-17 19:30N 25°41' W 080°15'0 0.0
2017-Apr-17 19:01N 25°41' W 080°15'0 0.0
2017-Apr-17 18:30N 25°41' W 080°15'0 0.0
2017-Apr-17 18:00N 25°41' W 080°15'0 0.0
2017-Apr-17 17:30N 25°41' W 080°15'0 0.0
2017-Apr-17 17:00N 25°41' W 080°15'0 0.0
2017-Apr-17 16:30N 25°41' W 080°15'0 0.0
2017-Apr-17 16:00N 25°41' W 080°15'0 0.0
2017-Apr-17 15:30N 25°41' W 080°15'0 0.0
2017-Apr-17 15:00N 25°41' W 080°15'0 0.0
2017-Apr-17 14:01N 25°41' W 080°15'  

Dump ship's entire track history